Time;durP1;ratioP1;P1;durP2;ratioP2;P2;SDS_P1;SDS_P2;PMS_P1;PMS_P2;Temp;Humidity;BMP_temperature;BMP_pressure;BME280_temperature;BME280_humidity;BME280_pressure;Samples;Min_cycle;Max_cycle;Signal;HPM_P1;HPM_P2
2022/08/01 00:01:40;;;;;;;20.30;11.98;;;;;;;20.21;84.65;101563.69;4982560;28;20038;-64
2022/08/01 00:04:05;;;;;;;19.65;12.27;;;;;;;20.21;84.31;101569.00;4987604;28;20034;-64
2022/08/01 00:06:30;;;;;;;22.63;13.25;;;;;;;20.22;84.35;101565.47;4985031;28;20463;-64
2022/08/01 00:08:56;;;;;;;17.58;12.00;;;;;;;20.21;84.68;101574.28;4986320;28;20499;-64
2022/08/01 00:11:21;;;;;;;19.95;13.30;;;;;;;20.22;84.67;101573.41;4987522;28;20060;-64
2022/08/01 00:13:47;;;;;;;20.20;12.75;;;;;;;20.21;84.83;101574.28;4969151;28;20026;-64
2022/08/01 00:16:12;;;;;;;21.45;12.90;;;;;;;20.18;84.89;101574.31;4985820;28;20054;-64
2022/08/01 00:18:37;;;;;;;20.67;12.55;;;;;;;20.16;85.11;101573.44;4985702;28;20510;-64
2022/08/01 00:21:04;;;;;;;22.33;13.20;;;;;;;20.16;85.14;101576.09;4990107;28;20072;-64
2022/08/01 00:23:30;;;;;;;20.85;13.25;;;;;;;20.15;85.21;101576.97;4987020;28;20026;-64
2022/08/01 00:25:55;;;;;;;24.27;12.77;;;;;;;20.14;85.57;101569.91;4988818;28;21457;-64
2022/08/01 00:28:20;;;;;;;19.58;13.10;;;;;;;20.13;85.27;101570.78;4983590;28;20121;-64
2022/08/01 00:30:46;;;;;;;21.92;13.25;;;;;;;20.12;85.16;101580.50;4982422;28;20037;-64
2022/08/01 00:33:11;;;;;;;27.90;14.68;;;;;;;20.08;85.30;101580.53;4984766;28;20022;-64
2022/08/01 00:35:36;;;;;;;27.10;14.50;;;;;;;20.06;85.69;101587.56;4991194;28;20021;-64
2022/08/01 00:38:02;;;;;;;23.48;13.82;;;;;;;20.07;85.71;101581.41;4988840;28;20493;-64
2022/08/01 00:40:27;;;;;;;26.27;15.13;;;;;;;20.03;86.31;101582.31;4981297;28;20073;-64
2022/08/01 00:42:52;;;;;;;27.10;14.15;;;;;;;20.02;85.96;101580.56;4984934;28;20504;-64
2022/08/01 00:45:18;;;;;;;24.25;14.38;;;;;;;20.02;85.62;101583.22;4984166;28;20419;-64
2022/08/01 00:47:43;;;;;;;24.52;15.07;;;;;;;19.98;85.96;101583.19;4984561;28;20568;-64
2022/08/01 00:50:10;;;;;;;26.20;15.05;;;;;;;19.95;86.54;101582.34;4983931;28;20127;-64
2022/08/01 00:52:36;;;;;;;25.10;14.27;;;;;;;19.94;86.45;101588.50;4986402;28;20113;-64
2022/08/01 00:55:01;;;;;;;24.67;15.48;;;;;;;19.92;87.13;101583.22;4987540;28;20037;-64
2022/08/01 00:57:27;;;;;;;27.80;15.70;;;;;;;19.95;86.79;101588.50;4986326;28;20031;-64
2022/08/01 00:59:53;;;;;;;26.95;15.18;;;;;;;19.97;86.04;101586.75;4964813;28;20032;-64
2022/08/01 01:02:18;;;;;;;26.35;15.57;;;;;;;19.95;87.08;101588.50;4985158;28;20046;-64
2022/08/01 01:04:44;;;;;;;29.08;16.30;;;;;;;19.95;87.12;101592.91;4985308;28;20034;-64
2022/08/01 01:07:18;;;;;;;26.45;15.10;;;;;;;19.93;86.82;101598.22;4984476;28;20030;-64
2022/08/01 01:10:02;;;;;;;28.50;16.50;;;;;;;19.95;86.88;101596.44;4990166;28;20034;-64
2022/08/01 01:12:42;;;;;;;25.80;16.27;;;;;;;19.97;86.97;101589.41;4967301;28;20034;-63
2022/08/01 01:15:12;;;;;;;22.15;14.25;;;;;;;19.96;86.62;101590.28;4987381;28;20053;-64
2022/08/01 01:17:46;;;;;;;27.85;14.77;;;;;;;19.99;86.46;101586.75;4984614;28;20405;-64
2022/08/01 01:20:15;;;;;;;25.20;13.63;;;;;;;19.98;86.22;101593.78;4985295;28;20034;-64
2022/08/01 01:22:52;;;;;;;22.83;13.00;;;;;;;19.98;85.79;101593.78;4986223;28;20033;-64
2022/08/01 01:25:36;;;;;;;20.60;12.43;;;;;;;19.96;85.66;101582.34;4967844;28;20141;-64
2022/08/01 01:28:09;;;;;;;21.50;12.40;;;;;;;19.97;85.24;101586.75;4986385;28;20492;-64
2022/08/01 01:30:36;;;;;;;24.55;12.93;;;;;;;19.96;85.81;101584.97;4986311;28;20038;-64
2022/08/01 01:33:05;;;;;;;20.42;12.27;;;;;;;19.95;86.15;101588.50;4986333;28;20497;-64
2022/08/01 01:35:32;;;;;;;;;;;;;;;20.04;84.31;101590.22;4983420;28;20105;-64
2022/08/01 01:38:03;;;;;;;20.88;12.52;;;;;;;19.98;85.23;101575.25;4986868;28;19975;-64
2022/08/01 01:40:30;;;;;;;22.48;12.98;;;;;;;19.97;85.33;101583.19;4987743;28;20050;-64
2022/08/01 01:42:56;;;;;;;20.90;12.30;;;;;;;19.96;85.13;101592.03;4986441;28;20114;-64
2022/08/01 01:45:24;;;;;;;20.25;11.95;;;;;;;19.94;84.84;101592.06;4989309;28;20026;-64
2022/08/01 01:47:50;;;;;;;18.85;11.45;;;;;;;19.90;85.50;101584.09;4990263;28;20117;-64
2022/08/01 01:50:19;;;;;;;19.88;12.25;;;;;;;19.89;85.49;101580.59;4987292;28;20038;-64
2022/08/01 01:52:46;;;;;;;21.02;11.75;;;;;;;19.88;85.90;101585.88;4986093;28;20143;-64
2022/08/01 01:55:13;;;;;;;18.30;12.02;;;;;;;19.88;86.25;101586.75;4985377;28;20036;-64
2022/08/01 01:57:41;;;;;;;20.85;11.93;;;;;;;19.88;85.73;101583.25;4989608;28;20512;-64
2022/08/01 02:00:10;;;;;;;18.67;11.82;;;;;;;19.87;85.98;101582.38;4984503;28;20034;-64
2022/08/01 02:02:36;;;;;;;20.60;11.45;;;;;;;19.88;85.31;101577.97;4987151;28;20161;-64
2022/08/01 02:05:02;;;;;;;20.85;11.65;;;;;;;19.89;85.64;101577.94;4968709;28;20175;-64
2022/08/01 02:07:29;;;;;;;19.15;11.30;;;;;;;19.90;85.08;101579.72;4980350;28;20806;-64
2022/08/01 02:09:56;;;;;;;18.85;11.23;;;;;;;19.91;84.85;101585.88;4986716;28;20037;-64
2022/08/01 02:12:21;;;;;;;19.83;11.48;;;;;;;19.89;85.58;101585.88;4983678;28;20489;-64
2022/08/01 02:14:49;;;;;;;19.25;10.98;;;;;;;19.90;84.66;101586.75;4988554;28;20029;-64
2022/08/01 02:17:18;;;;;;;18.13;11.25;;;;;;;19.89;85.00;101585.88;4977041;28;20030;-64
2022/08/01 02:19:44;;;;;;;18.95;11.32;;;;;;;19.88;84.71;101578.81;4989634;28;20023;-64
2022/08/01 02:22:13;;;;;;;17.63;10.73;;;;;;;19.87;85.17;101590.31;4987274;28;20045;-64
2022/08/01 02:24:48;;;;;;;18.23;10.93;;;;;;;19.88;84.94;101581.47;4990053;28;20061;-64
2022/08/01 02:27:26;;;;;;;20.10;11.52;;;;;;;19.91;84.52;101584.09;4981769;28;20030;-64
2022/08/01 02:30:01;;;;;;;20.05;11.15;;;;;;;19.90;84.34;101586.75;4986306;28;20371;-64
2022/08/01 02:32:31;;;;;;;18.88;11.77;;;;;;;19.90;84.73;101584.09;4987675;28;20509;-64
2022/08/01 02:34:59;;;;;;;17.98;10.77;;;;;;;19.88;85.05;101585.88;4985965;28;20041;-64
2022/08/01 02:37:26;;;;;;;20.20;11.98;;;;;;;19.88;85.36;101588.53;4987736;28;20026;-64
2022/08/01 02:39:54;;;;;;;18.80;11.20;;;;;;;19.87;85.11;101589.41;4978768;28;20057;-64
2022/08/01 02:42:22;;;;;;;18.65;11.23;;;;;;;19.84;84.91;101595.59;4966164;28;20153;-64
2022/08/01 02:44:49;;;;;;;20.77;11.52;;;;;;;19.80;85.26;101584.16;4988554;28;20038;-64
2022/08/01 02:47:20;;;;;;;18.45;11.00;;;;;;;19.82;84.97;101585.91;4988245;28;20050;-64
2022/08/01 02:49:47;;;;;;;18.77;11.10;;;;;;;19.82;84.89;101583.28;4985147;28;20026;-64
2022/08/01 02:52:16;;;;;;;17.58;10.77;;;;;;;19.80;84.72;101576.22;4985334;28;20072;-64
2022/08/01 02:54:44;;;;;;;21.60;11.13;;;;;;;19.83;84.59;101582.38;4983836;28;20081;-64
2022/08/01 02:57:11;;;;;;;18.58;10.95;;;;;;;19.81;85.17;101592.94;4988593;28;20037;-64
2022/08/01 02:59:38;;;;;;;16.92;10.07;;;;;;;19.80;84.63;101588.56;4986144;28;20022;-64
2022/08/01 03:02:06;;;;;;;17.35;11.02;;;;;;;19.79;84.92;101590.31;4986786;28;20509;-64
2022/08/01 03:04:33;;;;;;;22.60;12.50;;;;;;;19.78;84.82;101582.34;4988220;28;20470;-64
2022/08/01 03:07:01;;;;;;;17.70;11.02;;;;;;;19.77;84.89;101583.25;4984957;28;20030;-64
2022/08/01 03:09:30;;;;;;;20.13;11.07;;;;;;;19.77;85.22;101584.13;4984905;28;20033;-64
2022/08/01 03:12:00;;;;;;;17.87;10.97;;;;;;;19.77;84.48;101583.25;4980591;28;20061;-64
2022/08/01 03:14:27;;;;;;;19.17;10.45;;;;;;;19.77;84.95;101585.91;4960009;28;20460;-64
2022/08/01 03:16:54;;;;;;;17.60;11.02;;;;;;;19.77;84.34;101591.19;4984881;28;20029;-63
2022/08/01 03:19:23;;;;;;;16.38;10.32;;;;;;;19.77;84.92;101583.25;4988919;28;20026;-64
2022/08/01 03:21:50;;;;;;;21.27;11.05;;;;;;;19.76;84.82;101589.41;4984107;28;20035;-64
2022/08/01 03:24:18;;;;;;;18.73;11.90;;;;;;;19.73;85.25;101584.16;4990264;28;20032;-64
2022/08/01 03:26:44;;;;;;;19.33;11.88;;;;;;;19.74;84.40;101586.78;4984903;28;20057;-64
2022/08/01 03:29:17;;;;;;;19.38;11.43;;;;;;;19.73;85.08;101587.66;4990817;28;20026;-64
2022/08/01 03:31:45;;;;;;;22.15;11.52;;;;;;;19.70;85.38;101594.72;4986163;28;20050;-64
2022/08/01 03:34:11;;;;;;;17.73;11.30;;;;;;;19.70;85.12;101590.31;4991531;28;20089;-64
2022/08/01 03:37:14;;;;;;;17.88;11.13;;;;;;;19.72;84.38;101592.94;4992535;28;20038;-64
2022/08/01 03:39:51;;;;;;;19.63;11.20;;;;;;;19.70;85.14;101600.88;4991141;28;20518;-64
2022/08/01 03:42:23;;;;;;;17.85;10.57;;;;;;;19.72;85.05;101600.88;4989671;28;20038;-64
2022/08/01 03:44:54;;;;;;;19.00;11.05;;;;;;;19.70;85.07;101592.09;4992763;28;20108;-64
2022/08/01 03:47:24;;;;;;;18.30;10.90;;;;;;;19.71;85.16;101593.81;4987791;28;20041;-64
2022/08/01 03:49:52;;;;;;;19.35;11.20;;;;;;;19.71;85.77;101593.81;4990963;28;20121;-64
2022/08/01 03:52:18;;;;;;;21.27;11.73;;;;;;;19.68;85.80;101592.06;4974707;28;20034;-64
2022/08/01 03:54:49;;;;;;;21.50;11.48;;;;;;;19.66;85.67;101591.19;4992755;28;20030;-64
2022/08/01 03:57:16;;;;;;;21.50;11.35;;;;;;;19.67;85.31;101594.72;4991133;28;20406;-64
2022/08/01 03:59:42;;;;;;;19.95;11.88;;;;;;;19.63;85.52;101592.06;4991298;28;20025;-64
2022/08/01 04:02:08;;;;;;;17.42;10.93;;;;;;;19.64;85.15;101585.03;4987532;28;20156;-64
2022/08/01 04:04:34;;;;;;;20.30;11.60;;;;;;;19.63;85.42;101600.00;4991140;28;20117;-64
2022/08/01 04:07:04;;;;;;;19.48;11.57;;;;;;;19.62;85.19;101598.28;4991935;28;20035;-64
2022/08/01 04:09:31;;;;;;;21.30;11.57;;;;;;;19.60;86.05;101596.50;4990876;28;20413;-64
2022/08/01 04:11:58;;;;;;;20.50;11.77;;;;;;;19.61;85.42;101592.97;4986935;28;20034;-64
2022/08/01 04:14:23;;;;;;;18.65;11.63;;;;;;;19.61;85.40;101607.06;4992246;28;20034;-64
2022/08/01 04:16:49;;;;;;;19.83;11.35;;;;;;;19.61;85.15;101599.16;4989536;28;20026;-64
2022/08/01 04:19:14;;;;;;;19.17;10.75;;;;;;;19.60;84.84;101601.78;4991590;28;20030;-64
2022/08/01 04:21:40;;;;;;;21.27;12.45;;;;;;;19.59;84.95;101608.81;4988419;28;20022;-64
2022/08/01 04:24:14;;;;;;;18.15;10.90;;;;;;;19.57;85.00;101607.97;4991987;28;20037;-63
2022/08/01 04:26:43;;;;;;;24.25;12.93;;;;;;;19.57;84.63;101620.31;4989895;28;20026;-64
2022/08/01 04:29:10;;;;;;;19.88;11.63;;;;;;;19.56;85.19;101611.47;4991764;28;20490;-64
2022/08/01 04:31:36;;;;;;;20.90;11.15;;;;;;;19.55;84.92;101611.47;4991429;28;20022;-64
2022/08/01 04:34:04;;;;;;;23.42;11.98;;;;;;;19.51;85.10;101604.44;4990911;28;20030;-63
2022/08/01 04:36:32;;;;;;;20.42;11.57;;;;;;;19.50;85.19;101607.97;4991074;28;20133;-64
2022/08/01 04:39:01;;;;;;;25.20;12.55;;;;;;;19.51;84.82;101609.72;4990110;28;20129;-64
2022/08/01 04:41:29;;;;;;;19.75;11.98;;;;;;;19.51;84.61;101613.25;4986417;28;20104;-64
2022/08/01 04:43:55;;;;;;;21.83;12.15;;;;;;;19.50;85.18;101623.84;4991691;28;20036;-64
2022/08/01 04:46:22;;;;;;;20.13;11.80;;;;;;;19.49;84.76;101624.72;4991462;28;20035;-64
2022/08/01 04:48:48;;;;;;;20.30;11.77;;;;;;;19.48;85.17;101617.66;4971532;28;20058;-64
2022/08/01 04:51:15;;;;;;;19.80;12.05;;;;;;;19.49;85.11;101620.28;4988435;28;20179;-63
2022/08/01 04:53:41;;;;;;;22.90;12.93;;;;;;;19.48;85.04;101623.84;4992122;28;20045;-64
2022/08/01 04:56:06;;;;;;;21.70;12.77;;;;;;;19.48;85.20;101628.22;4986342;28;20401;-64
2022/08/01 04:58:31;;;;;;;19.90;12.15;;;;;;;19.47;85.00;101630.00;4985945;28;20027;-64
2022/08/01 05:00:57;;;;;;;21.67;11.98;;;;;;;19.48;85.31;101638.81;4972032;28;20465;-64
2022/08/01 05:03:22;;;;;;;19.55;11.80;;;;;;;19.49;85.10;101638.81;4990410;28;20034;-64
2022/08/01 05:05:47;;;;;;;19.92;12.15;;;;;;;19.48;85.48;101642.34;4990331;28;20511;-64
2022/08/01 05:08:13;;;;;;;23.88;13.10;;;;;;;19.49;85.33;101641.44;4990242;28;20026;-64
2022/08/01 05:10:38;;;;;;;24.20;13.65;;;;;;;19.51;85.43;101636.16;4990471;28;19918;-64
2022/08/01 05:13:03;;;;;;;22.85;13.40;;;;;;;19.51;86.16;101646.72;4988410;28;20066;-64
2022/08/01 05:15:29;;;;;;;21.95;12.63;;;;;;;19.51;86.17;101650.28;4987494;28;20057;-63
2022/08/01 05:17:56;;;;;;;20.25;11.73;;;;;;;19.51;85.67;101652.91;4988683;28;20035;-63
2022/08/01 05:20:21;;;;;;;17.85;11.50;;;;;;;19.50;85.74;101648.50;4971486;28;20015;-64
2022/08/01 05:22:46;;;;;;;21.98;11.68;;;;;;;19.51;86.15;101655.56;4987634;28;20037;-64
2022/08/01 05:25:12;;;;;;;21.45;11.63;;;;;;;19.51;85.99;101646.72;4987703;28;20502;-64
2022/08/01 05:27:39;;;;;;;18.45;11.55;;;;;;;19.51;85.87;101654.66;4990045;28;20505;-63
2022/08/01 05:30:08;;;;;;;19.05;11.32;;;;;;;19.47;86.05;101653.78;4988980;28;20022;-64
2022/08/01 05:32:34;;;;;;;18.92;11.55;;;;;;;19.44;85.58;101649.38;4990647;28;20409;-63
2022/08/01 05:34:59;;;;;;;19.95;10.95;;;;;;;19.44;85.54;101659.09;4989362;28;20731;-63
2022/08/01 05:37:25;;;;;;;18.67;11.02;;;;;;;19.42;85.48;101660.81;4989588;28;20040;-64
2022/08/01 05:39:50;;;;;;;20.73;11.85;;;;;;;19.40;86.19;101658.19;4988731;28;20047;-64
2022/08/01 05:42:15;;;;;;;18.52;11.57;;;;;;;19.42;85.91;101655.53;4988719;28;20034;-63
2022/08/01 05:44:41;;;;;;;17.45;10.85;;;;;;;19.38;85.63;101652.03;4989107;28;20018;-64
2022/08/01 05:47:06;;;;;;;18.27;10.80;;;;;;;19.40;85.64;101646.75;4987129;28;20113;-58
2022/08/01 05:49:31;;;;;;;16.48;9.57;;;;;;;19.42;86.03;101647.63;4989407;28;20486;-58
2022/08/01 05:51:57;;;;;;;15.77;9.95;;;;;;;19.42;86.39;101644.97;4987437;28;20045;-58
2022/08/01 05:54:22;;;;;;;19.92;11.55;;;;;;;19.44;86.00;101648.50;4988380;28;20298;-59
2022/08/01 05:56:47;;;;;;;18.25;11.20;;;;;;;19.41;86.30;101648.53;4990710;28;20459;-58
2022/08/01 05:59:12;;;;;;;19.10;12.18;;;;;;;19.41;86.30;101653.81;4988291;28;20034;-58
2022/08/01 06:01:38;;;;;;;17.67;11.20;;;;;;;19.41;85.90;101653.81;4987199;28;20046;-59
2022/08/01 06:04:03;;;;;;;17.30;10.45;;;;;;;19.41;86.06;101654.66;4987588;28;20522;-58
2022/08/01 06:06:28;;;;;;;18.33;10.73;;;;;;;19.44;86.00;101661.72;4989634;28;20046;-58
2022/08/01 06:08:54;;;;;;;14.43;8.82;;;;;;;19.44;85.91;101664.38;4990418;28;20034;-58
2022/08/01 06:11:19;;;;;;;15.10;8.95;;;;;;;19.44;86.20;101659.09;4986990;28;20470;-59
2022/08/01 06:13:44;;;;;;;14.90;8.77;;;;;;;19.46;86.14;101662.59;4987261;28;20086;-58
2022/08/01 06:16:10;;;;;;;14.52;8.65;;;;;;;19.49;85.87;101659.94;4989669;28;20027;-64
2022/08/01 06:18:35;;;;;;;15.07;9.30;;;;;;;19.51;86.88;101662.59;4987707;28;20030;-64
2022/08/01 06:21:00;;;;;;;14.48;8.48;;;;;;;19.52;86.14;101662.59;4988116;28;20451;-64
2022/08/01 06:23:26;;;;;;;13.85;7.72;;;;;;;19.55;86.14;101664.34;4987929;28;20041;-64
2022/08/01 06:25:54;;;;;;;12.50;7.22;;;;;;;19.57;86.69;101665.25;4985955;28;20029;-64
2022/08/01 06:28:21;;;;;;;11.00;6.95;;;;;;;19.57;86.20;101665.25;4987964;28;20304;-64
2022/08/01 06:30:46;;;;;;;11.07;6.90;;;;;;;19.57;86.26;101660.84;4988763;28;20129;-63
2022/08/01 06:33:11;;;;;;;10.02;5.68;;;;;;;19.57;85.80;101671.41;4986486;28;20394;-64
2022/08/01 06:35:36;;;;;;;9.38;5.53;;;;;;;19.58;85.52;101670.53;4988151;28;20386;-64
2022/08/01 06:38:02;;;;;;;10.63;5.75;;;;;;;19.57;85.36;101676.69;4987156;28;20162;-64
2022/08/01 06:40:28;;;;;;;11.50;5.57;;;;;;;19.57;85.93;101676.69;4988291;28;20046;-64
2022/08/01 06:42:53;;;;;;;8.90;5.40;;;;;;;19.58;86.08;101677.56;4987040;28;20050;-64
2022/08/01 06:45:22;;;;;;;10.70;6.00;;;;;;;19.60;85.97;101676.69;4987695;28;20062;-64
2022/08/01 06:47:47;;;;;;;9.57;5.50;;;;;;;19.64;86.04;101677.59;4986189;28;20086;-64
2022/08/01 06:50:14;;;;;;;10.20;5.35;;;;;;;19.64;85.23;101675.81;4987968;28;20128;-63
2022/08/01 06:52:40;;;;;;;8.80;5.22;;;;;;;19.66;85.78;101680.22;4965228;28;20440;-63
2022/08/01 06:55:06;;;;;;;12.05;5.47;;;;;;;19.69;85.84;101691.66;4983321;28;20101;-64
2022/08/01 06:57:31;;;;;;;9.15;5.93;;;;;;;19.70;84.62;101682.84;4985208;28;20157;-64
2022/08/01 06:59:56;;;;;;;8.70;5.43;;;;;;;19.72;84.70;101690.78;4988282;28;20482;-63
2022/08/01 07:02:22;;;;;;;9.70;5.00;;;;;;;19.73;85.55;101692.56;4987680;28;20512;-64
2022/08/01 07:04:48;;;;;;;8.38;5.50;;;;;;;19.75;85.28;101685.50;4987750;28;20485;-63
2022/08/01 07:07:13;;;;;;;10.57;6.47;;;;;;;19.77;84.93;101681.09;4989878;28;20069;-64
2022/08/01 07:09:41;;;;;;;10.02;5.40;;;;;;;19.79;85.14;101687.28;4984417;28;20029;-63
2022/08/01 07:12:06;;;;;;;9.02;5.45;;;;;;;19.82;85.79;101682.00;4986092;28;20379;-64
2022/08/01 07:14:32;;;;;;;7.53;4.90;;;;;;;19.85;84.95;101689.06;4987965;28;20080;-63
2022/08/01 07:16:57;;;;;;;7.32;4.30;;;;;;;19.89;84.59;101683.75;4983601;28;20135;-64
2022/08/01 07:19:22;;;;;;;7.30;3.90;;;;;;;19.94;85.72;101689.94;4978580;28;20077;-64
2022/08/01 07:21:47;;;;;;;6.00;3.42;;;;;;;20.02;84.81;101687.25;4983425;28;20034;-63
2022/08/01 07:24:14;;;;;;;8.27;3.38;;;;;;;20.08;84.64;101692.53;4980930;28;20037;-65
2022/08/01 07:26:44;;;;;;;6.40;3.20;;;;;;;20.13;84.40;101689.84;4982000;28;20106;-64
2022/08/01 07:29:10;;;;;;;5.70;2.90;;;;;;;20.20;84.95;101690.72;4980502;28;20505;-64
2022/08/01 07:31:35;;;;;;;6.43;2.95;;;;;;;20.26;84.89;101691.63;4982808;28;20057;-63
2022/08/01 07:34:00;;;;;;;5.97;3.13;;;;;;;20.30;84.55;101692.47;4984673;28;20037;-64
2022/08/01 07:36:26;;;;;;;4.65;2.53;;;;;;;20.34;83.31;101696.88;4988009;28;20023;-63
2022/08/01 07:38:51;;;;;;;5.13;2.60;;;;;;;20.36;83.59;101694.22;4987511;28;20100;-64
2022/08/01 07:41:16;;;;;;;5.00;2.50;;;;;;;20.37;83.08;101703.94;4984754;28;20086;-64
2022/08/01 07:43:42;;;;;;;5.32;2.65;;;;;;;20.36;81.59;101702.16;4981089;28;20449;-64
2022/08/01 07:46:07;;;;;;;5.68;2.75;;;;;;;20.35;82.02;101703.94;4981151;28;20034;-64
2022/08/01 07:48:33;;;;;;;5.53;3.28;;;;;;;20.36;82.67;101704.81;4980907;28;20085;-64
2022/08/01 07:50:58;;;;;;;5.65;3.35;;;;;;;20.35;82.24;101708.31;4964167;28;20034;-64
2022/08/01 07:53:24;;;;;;;5.00;3.22;;;;;;;20.37;82.63;101707.44;4981326;28;20038;-64
2022/08/01 07:55:49;;;;;;;6.00;2.92;;;;;;;20.39;82.37;101707.44;4981999;28;20494;-64
2022/08/01 07:58:16;;;;;;;5.82;2.85;;;;;;;20.43;82.45;101714.47;4980717;28;20057;-64
2022/08/01 08:00:41;;;;;;;7.68;2.95;;;;;;;20.46;84.48;101711.81;4979737;28;20077;-64
2022/08/01 08:03:07;;;;;;;5.53;2.75;;;;;;;20.47;81.87;101710.94;4979919;28;20038;-64
2022/08/01 08:05:34;;;;;;;4.85;2.50;;;;;;;20.51;82.11;101702.09;4983141;28;20057;-63
2022/08/01 08:08:07;;;;;;;5.00;2.50;;;;;;;20.53;81.83;101705.63;4981152;28;20069;-64
2022/08/01 08:10:33;;;;;;;5.68;2.67;;;;;;;20.62;83.56;101707.34;4981061;28;20106;-64
2022/08/01 08:12:58;;;;;;;4.10;2.40;;;;;;;20.70;83.45;101707.34;4984961;28;20022;-64
2022/08/01 08:15:24;;;;;;;4.45;2.60;;;;;;;20.76;82.26;101713.50;4983941;28;20069;-64
2022/08/01 08:17:49;;;;;;;5.65;2.70;;;;;;;20.84;83.11;101724.94;4986575;28;20030;-64
2022/08/01 08:20:15;;;;;;;3.92;1.95;;;;;;;20.91;81.84;101715.19;4991300;28;20089;-64
2022/08/01 08:22:40;;;;;;;3.42;1.80;;;;;;;20.93;80.20;101707.22;4985447;28;20029;-64
2022/08/01 08:25:07;;;;;;;3.78;1.70;;;;;;;20.97;79.65;101704.56;4986339;28;20026;-64
2022/08/01 08:27:32;;;;;;;4.10;1.90;;;;;;;21.03;80.09;101711.59;4990143;28;20045;-64
2022/08/01 08:29:57;;;;;;;4.60;2.20;;;;;;;21.06;79.65;101703.63;4970082;28;20027;-64
2022/08/01 08:32:23;;;;;;;3.42;1.83;;;;;;;21.12;80.06;101714.19;4986173;28;20508;-64
2022/08/01 08:34:48;;;;;;;4.18;1.80;;;;;;;21.15;78.39;101710.63;4983974;28;20030;-65
2022/08/01 08:37:14;;;;;;;2.13;1.20;;;;;;;21.19;76.76;101709.72;4986021;28;20026;-64
2022/08/01 08:39:39;;;;;;;2.42;1.30;;;;;;;21.21;75.91;101710.59;4982510;28;20177;-64
2022/08/01 08:42:07;;;;;;;3.25;1.50;;;;;;;21.22;76.78;101719.41;4982563;28;20026;-64
2022/08/01 08:44:32;;;;;;;2.90;1.35;;;;;;;21.24;76.30;101712.34;4983893;28;20029;-64
2022/08/01 08:47:00;;;;;;;2.33;1.50;;;;;;;21.30;76.96;101715.81;4984895;28;20038;-64
2022/08/01 08:49:28;;;;;;;3.00;1.63;;;;;;;21.36;76.31;101720.19;4983429;28;20073;-65
2022/08/01 08:51:57;;;;;;;2.95;1.70;;;;;;;21.43;76.87;101716.59;4987962;28;20049;-64
2022/08/01 08:54:23;;;;;;;3.13;1.77;;;;;;;21.47;76.10;101713.03;4987405;28;20070;-64
2022/08/01 08:56:51;;;;;;;4.03;1.67;;;;;;;21.56;76.17;101711.25;4971201;28;20121;-59
2022/08/01 08:59:17;;;;;;;3.67;1.77;;;;;;;21.60;74.00;101703.25;4981223;28;20026;-64
2022/08/01 09:01:43;;;;;;;3.08;1.70;;;;;;;21.66;74.88;101710.28;4984167;28;20445;-64
2022/08/01 09:04:09;;;;;;;2.92;1.90;;;;;;;21.75;75.96;101710.19;4989069;28;20054;-64
2022/08/01 09:06:35;;;;;;;3.85;1.92;;;;;;;21.85;74.93;101716.28;4986125;28;20073;-64
2022/08/01 09:09:00;;;;;;;3.35;2.10;;;;;;;21.93;75.03;101719.75;4983279;28;20781;-64
2022/08/01 09:11:26;;;;;;;3.42;1.60;;;;;;;21.99;74.06;101716.16;4985040;28;20402;-64
2022/08/01 09:14:09;;;;;;;3.05;1.40;;;;;;;21.98;74.17;101723.22;4984959;28;20130;-64
2022/08/01 09:16:37;;;;;;;4.32;1.70;;;;;;;22.01;74.40;101723.19;4982600;28;20109;-64
2022/08/01 09:19:09;;;;;;;3.50;1.70;;;;;;;22.03;74.60;101726.75;4987034;28;20408;-64
2022/08/01 09:21:35;;;;;;;3.38;1.90;;;;;;;22.05;73.21;101724.06;4986097;28;20034;-64
2022/08/01 09:24:05;;;;;;;3.95;1.85;;;;;;;22.06;73.25;101731.13;4987125;28;20022;-64
2022/08/01 09:26:33;;;;;;;4.45;1.90;;;;;;;22.05;73.79;101729.38;4983691;28;20026;-64
2022/08/01 09:29:00;;;;;;;3.40;2.20;;;;;;;22.06;74.67;101736.44;4983016;28;20486;-64
2022/08/01 09:31:27;;;;;;;3.83;1.90;;;;;;;22.05;73.26;101734.69;4988067;28;20601;-64
2022/08/01 09:33:58;;;;;;;3.40;1.60;;;;;;;22.06;72.57;101736.44;4988443;28;20037;-64
2022/08/01 09:36:25;;;;;;;3.67;1.50;;;;;;;22.13;72.56;101732.84;4989907;28;20029;-64
2022/08/01 09:38:53;;;;;;;2.47;1.40;;;;;;;22.16;69.83;101737.22;4983145;28;20023;-64
2022/08/01 09:41:29;;;;;;;3.88;1.60;;;;;;;22.20;69.93;101731.88;4981862;28;20132;-64
2022/08/01 09:43:55;;;;;;;2.63;1.60;;;;;;;22.29;72.00;101737.97;4984702;28;20094;-64
2022/08/01 09:46:21;;;;;;;3.75;2.00;;;;;;;22.32;69.90;101741.50;4982372;28;20040;-64
2022/08/01 09:49:06;;;;;;;3.60;1.85;;;;;;;22.36;71.33;101739.69;4981951;28;20041;-64
2022/08/01 09:51:38;;;;;;;3.47;2.25;;;;;;;22.37;71.56;101741.47;4983006;28;20052;-64
2022/08/01 09:54:05;;;;;;;3.90;2.30;;;;;;;22.38;73.43;101743.22;4982016;28;20389;-64
2022/08/01 09:56:40;;;;;;;3.88;2.28;;;;;;;22.40;72.79;101742.31;4983064;28;20030;-64
2022/08/01 09:59:06;;;;;;;4.35;2.00;;;;;;;22.42;69.94;101749.38;4985444;28;20026;-64
2022/08/01 10:01:46;;;;;;;3.80;1.90;;;;;;;22.49;72.82;101751.06;4985402;28;20064;-64
2022/08/01 10:04:22;;;;;;;4.20;2.65;;;;;;;22.60;72.65;101754.47;4984450;28;20037;-64
2022/08/01 10:06:52;;;;;;;4.82;3.03;;;;;;;22.63;70.93;101746.47;4985149;28;20041;-64
2022/08/01 10:09:32;;;;;;;5.35;3.13;;;;;;;22.70;72.42;101749.94;4981212;28;20509;-64
2022/08/01 10:11:59;;;;;;;5.10;3.05;;;;;;;22.81;71.95;101755.09;4978096;28;20118;-64
2022/08/01 10:14:27;;;;;;;5.40;3.10;;;;;;;22.93;72.69;101753.16;4983664;28;20050;-64
2022/08/01 10:16:56;;;;;;;5.60;3.17;;;;;;;23.02;71.19;101756.59;4987243;28;20058;-64
2022/08/01 10:19:24;;;;;;;4.22;2.58;;;;;;;23.07;69.28;101752.97;4982437;28;20026;-64
2022/08/01 10:21:53;;;;;;;3.97;2.80;;;;;;;23.12;70.06;101747.63;4981041;28;20537;-64
2022/08/01 10:24:22;;;;;;;;;;;;;;;23.18;71.08;101746.66;4983035;28;20034;-64
2022/08/01 10:26:49;;;;;;;4.93;2.50;;;;;;;23.15;68.54;101752.91;4981059;28;19922;-65
2022/08/01 10:29:19;;;;;;;5.25;2.33;;;;;;;23.14;68.42;101755.56;4984170;28;20038;-64
2022/08/01 10:31:46;;;;;;;4.40;2.78;;;;;;;23.14;68.09;101759.09;4985885;28;20030;-64
2022/08/01 10:34:15;;;;;;;4.03;2.38;;;;;;;23.17;69.33;101763.50;4981950;28;20026;-64
2022/08/01 10:36:41;;;;;;;;;;;;;;;23.25;70.74;101761.63;4983631;28;20113;-64
2022/08/01 10:39:07;;;;;;;3.40;2.17;;;;;;;23.14;68.44;101771.53;4986075;28;20365;-63
2022/08/01 10:41:33;;;;;;;3.75;2.10;;;;;;;23.09;68.99;101771.56;4980745;28;20519;-64
2022/08/01 10:44:00;;;;;;;4.95;2.67;;;;;;;23.02;69.30;101765.44;4985135;28;20049;-64
2022/08/01 10:46:26;;;;;;;6.90;2.63;;;;;;;22.99;70.24;101765.50;4984722;28;20477;-64
2022/08/01 10:48:54;;;;;;;4.60;2.50;;;;;;;23.06;72.68;101769.81;4980995;28;20092;-64
2022/08/01 10:51:21;;;;;;;3.72;2.40;;;;;;;23.15;71.04;101765.31;4981856;28;20034;-64
2022/08/01 10:53:57;;;;;;;3.92;2.17;;;;;;;23.27;72.18;101757.16;4981657;28;20117;-64
2022/08/01 10:56:23;;;;;;;4.05;2.13;;;;;;;23.35;72.82;101768.56;4982093;28;20442;-64
2022/08/01 10:58:49;;;;;;;3.00;1.80;;;;;;;23.46;71.92;101764.84;4981184;28;20026;-64
2022/08/01 11:01:14;;;;;;;4.35;2.00;;;;;;;23.54;71.37;101766.50;4981268;28;20053;-64
2022/08/01 11:03:41;;;;;;;4.60;1.80;;;;;;;23.61;71.58;101777.94;4982088;28;20117;-64
2022/08/01 11:06:07;;;;;;;3.85;2.03;;;;;;;23.68;71.91;101778.69;4981340;28;20030;-63
2022/08/01 11:08:37;;;;;;;4.72;2.00;;;;;;;23.77;71.43;101778.56;4981657;28;20510;-64
2022/08/01 11:11:04;;;;;;;4.50;2.20;;;;;;;23.78;69.51;101780.28;4983154;28;20032;-64
2022/08/01 11:14:00;;;;;;;3.60;1.80;;;;;;;23.83;69.72;101783.78;4981920;28;20030;-64
2022/08/01 11:16:31;;;;;;;3.92;1.50;;;;;;;23.84;67.32;101790.84;4980227;28;20034;-64
2022/08/01 11:18:56;;;;;;;4.35;1.70;;;;;;;23.87;68.36;101790.84;4981444;28;20020;-64